MMDO/DGO METAR and TAF weather

Enter ICAO airport designator
Station Type Date Time Source
MMDO METAR 2020/09/30 13:44 UTC NOAA

MMDO 301344Z 00000KT 10SM SKC 09/06 A3039


Station Type Date Time Source
MMDO Decoded METAR 2020/09/30 13:44 UTC NOAA

Durango Airport, Mexico (MMDO) 24-08N 104-32W
Sep 30, 2020 - 09:44 AM EDT / 2020.09.30 1344 UTC
Wind: Calm:0
Visibility: 10 mile(s):0
Sky conditions: clear
Temperature: 48 F (9 C)
Dew Point: 42 F (6 C)
Relative Humidity: 81%
Pressure (altimeter): 30.39 in. Hg (1029 hPa)
ob: MMDO 301344Z 00000KT 10SM SKC 09/06 A3039
cycle: 13

Station Type Date Time Source
MMDO TAF 2020/09/30 06:51 UTC NOAA

TAF MMDO 300543Z 3006/0106 35005KT P6SM SCT200
TEMPO 3011/3015 5SM HZ SCT020
FM301800 06010KT P6SM SKC
BECMG 0101/0102 03005KT

Example: see airport list